Terminal Aerodrome Forecast
Issued by NWS Grand Forks, ND

Home | Current Version | Previous Version | Text Only | Print | Product List | Glossary On
Versions: 1 2 3 4 5 6 7 8 9 10 11 12 13 14 15 16
751
FTUS43 KFGF 242320
TAFFAR
TAF
KFAR 242320Z 2500/2524 33005KT P6SM SCT250
     FM251200 11008KT P6SM OVC250
     FM251500 09011KT P6SM -SHRA OVC100
     FM251600 09010KT 5SM -TSRA BKN050CB
     FM251900 12012KT P6SM VCTS BKN050CB
     FM252100 12015KT P6SM BKN040=

USA.gov is the U.S. government's official web portal to all federal, state and local government web resources and services.